Terminal Aerodrome Forecast
Issued by NWS

Home | Current Version | Previous Version | Text Only | Print | Product List | Glossary On
Versions: 1 2 3 4 5 6 7 8 9 10 11 12 13 14 15 16 17 18
000
FTUS43 KMQT 041839 AAA
TAFCMX
TAF AMD
KCMX 041839Z 0419/0518 28021G30KT 2SM -SHSN BLSN OVC020
      TEMPO 0419/0422 1/2SM SN BLSN BKN015
     FM042300 28014G19KT 4SM -SHSN BKN025
     FM050300 29007KT 5SM -SHSN BKN026
     FM050800 28006KT 6SM -SHSN BKN028
     FM051500 27009KT P6SM VCSH SCT030=

USA.gov is the U.S. government's official web portal to all federal, state and local government web resources and services.